Time;durP1;ratioP1;P1;durP2;ratioP2;P2;SDS_P1;SDS_P2;PMS_P1;PMS_P2;Temp;Humidity;BMP_temperature;BMP_pressure;BME280_temperature;BME280_humidity;BME280_pressure;Samples;Min_cycle;Max_cycle;Signal;HPM_P1;HPM_P2
2023/02/19 00:00:10;;;;;;;10.80;8.00;;;11.00;99.90;;;;;;4998902;28;20450;-74
2023/02/19 00:02:57;;;;;;;9.83;7.90;;;11.00;99.90;;;;;;5003050;28;21021;-74
2023/02/19 00:05:43;;;;;;;12.90;8.07;;;10.90;99.90;;;;;;5002672;28;20599;-74
2023/02/19 00:08:30;;;;;;;8.13;7.13;;;10.90;99.90;;;;;;5004340;28;20938;-74
2023/02/19 00:11:18;;;;;;;7.60;6.60;;;10.80;99.90;;;;;;5000531;28;20596;-74
2023/02/19 00:14:05;;;;;;;10.30;7.27;;;10.80;99.90;;;;;;5003199;28;20581;-74
2023/02/19 00:16:50;;;;;;;8.03;6.73;;;10.80;99.90;;;;;;5005933;28;20441;-74
2023/02/19 00:19:37;;;;;;;8.30;6.60;;;10.90;99.90;;;;;;4999201;28;20426;-74
2023/02/19 00:22:23;;;;;;;9.00;6.97;;;10.90;99.90;;;;;;4998711;28;21114;-74
2023/02/19 00:25:08;;;;;;;7.30;6.60;;;10.90;99.90;;;;;;4999617;28;20927;-74
2023/02/19 00:27:54;;;;;;;6.30;5.70;;;10.90;99.90;;;;;;5004249;28;20499;-74
2023/02/19 00:30:40;;;;;;;6.83;5.93;;;10.90;99.90;;;;;;4999197;28;20441;-74
2023/02/19 00:33:27;;;;;;;9.10;5.97;;;10.90;99.90;;;;;;5003573;28;20461;-74
2023/02/19 00:36:15;;;;;;;7.00;5.57;;;10.90;99.90;;;;;;4996791;28;20478;-74
2023/02/19 00:39:00;;;;;;;8.33;6.40;;;10.90;99.90;;;;;;5004084;28;20928;-74
2023/02/19 00:41:47;;;;;;;6.07;5.47;;;10.90;99.90;;;;;;5004370;28;20449;-74
2023/02/19 00:44:32;;;;;;;13.23;6.57;;;10.90;99.90;;;;;;5012383;22;20681;-71
2023/02/19 00:47:18;;;;;;;9.07;5.63;;;11.00;99.90;;;;;;5027243;28;21087;-71
2023/02/19 00:50:04;;;;;;;8.60;5.73;;;11.00;99.90;;;;;;5019657;28;20644;-71
2023/02/19 00:52:51;;;;;;;7.03;5.63;;;10.90;99.90;;;;;;5030278;28;20443;-72
2023/02/19 00:55:37;;;;;;;8.93;5.70;;;10.90;99.90;;;;;;5026176;28;20447;-72
2023/02/19 00:58:23;;;;;;;6.30;5.40;;;10.90;99.90;;;;;;5030333;28;20437;-72
2023/02/19 01:01:09;;;;;;;6.97;5.30;;;10.90;99.90;;;;;;5023319;28;20402;-71
2023/02/19 01:03:54;;;;;;;5.90;5.20;;;10.90;99.90;;;;;;5028066;28;20456;-71
2023/02/19 01:06:40;;;;;;;6.90;5.47;;;10.90;99.90;;;;;;5029291;28;20487;-72
2023/02/19 01:09:28;;;;;;;9.77;6.40;;;11.00;99.90;;;;;;5026957;28;20563;-71
2023/02/19 01:12:13;;;;;;;5.73;5.17;;;11.00;99.90;;;;;;5027077;28;20461;-72
2023/02/19 01:14:59;;;;;;;8.50;5.80;;;11.00;99.90;;;;;;5021542;28;20470;-71
2023/02/19 01:17:45;;;;;;;5.93;5.33;;;10.90;99.90;;;;;;5027995;28;20424;-72
2023/02/19 01:20:31;;;;;;;6.50;5.00;;;10.90;99.90;;;;;;5025830;28;20402;-72
2023/02/19 01:23:16;;;;;;;6.10;4.53;;;10.80;99.90;;;;;;5019896;28;20417;-71
2023/02/19 01:26:06;;;;;;;6.07;4.50;;;10.90;99.90;;;;;;5025100;28;20478;-72
2023/02/19 01:28:52;;;;;;;6.60;5.33;;;10.90;99.90;;;;;;5027765;28;20206;-72
2023/02/19 01:31:40;;;;;;;7.37;4.87;;;11.00;99.90;;;;;;5030771;28;21010;-72
2023/02/19 01:34:29;;;;;;;6.17;5.30;;;10.90;99.90;;;;;;5032324;28;20650;-72
2023/02/19 01:37:14;;;;;;;5.87;5.30;;;10.80;99.90;;;;;;5037047;28;20439;-72
2023/02/19 01:40:00;;;;;;;7.43;5.10;;;10.80;99.90;;;;;;5040770;28;20874;-72
2023/02/19 01:42:47;;;;;;;6.30;4.70;;;10.80;99.90;;;;;;5039612;28;20800;-72
2023/02/19 01:45:34;;;;;;;7.93;4.60;;;10.80;99.90;;;;;;5026688;28;20527;-72
2023/02/19 01:48:23;;;;;;;6.80;5.83;;;10.70;99.90;;;;;;5027049;28;20481;-72
2023/02/19 01:51:12;;;;;;;5.30;4.50;;;10.60;99.90;;;;;;5024171;28;20846;-72
2023/02/19 01:54:01;;;;;;;5.80;4.70;;;10.60;99.90;;;;;;5025942;28;20829;-72
2023/02/19 01:56:48;;;;;;;7.50;4.63;;;10.70;99.90;;;;;;5031614;28;20574;-72
2023/02/19 01:59:35;;;;;;;6.07;4.87;;;10.60;99.90;;;;;;5030489;28;20479;-72
2023/02/19 02:02:22;;;;;;;8.03;4.77;;;10.60;99.90;;;;;;5027601;28;20572;-71
2023/02/19 02:05:15;;;;;;;7.83;4.50;;;10.50;99.90;;;;;;5022977;28;20443;-71
2023/02/19 02:11:06;;;;;;;6.03;4.83;;;10.40;99.90;;;;;;5028188;28;20481;-71
2023/02/19 02:13:52;;;;;;;5.73;4.97;;;10.30;99.90;;;;;;5023829;28;20519;-71
2023/02/19 02:16:47;;;;;;;6.30;4.70;;;10.30;99.90;;;;;;5031871;28;20466;-71
2023/02/19 02:20:02;;;;;;;8.03;5.00;;;10.40;99.90;;;;;;5015527;28;20452;-72
2023/02/19 02:22:55;;;;;;;4.77;4.13;;;10.40;99.90;;;;;;5024191;28;20495;-72
2023/02/19 02:26:08;;;;;;;6.20;4.20;;;10.40;99.90;;;;;;5020517;28;20468;-72
2023/02/19 02:29:22;;;;;;;8.60;3.90;;;10.50;99.90;;;;;;5022521;28;20920;-71
2023/02/19 02:32:12;;;;;;;5.50;4.90;;;10.50;99.90;;;;;;5034732;28;20913;-72
2023/02/19 02:35:02;;;;;;;4.40;4.00;;;10.40;99.90;;;;;;5025977;28;20511;-72
2023/02/19 02:37:49;;;;;;;5.30;4.77;;;10.40;99.90;;;;;;5029274;28;20443;-71
2023/02/19 02:40:35;;;;;;;5.13;4.17;;;10.40;99.90;;;;;;5027862;28;20461;-72
2023/02/19 02:43:21;;;;;;;5.23;4.50;;;10.40;99.90;;;;;;5021259;28;20437;-72
2023/02/19 02:46:07;;;;;;;4.37;3.50;;;10.40;99.90;;;;;;5030506;28;20488;-71
2023/02/19 02:48:56;;;;;;;5.37;3.47;;;10.30;99.90;;;;;;5032059;28;20442;-71
2023/02/19 02:51:46;;;;;;;8.73;5.90;;;10.30;99.90;;;;;;5027571;28;20486;-72
2023/02/19 02:57:38;;;;;;;4.93;4.43;;;10.30;99.90;;;;;;5024957;28;20486;-72
2023/02/19 03:02:09;;;;;;;4.30;3.90;;;10.30;99.90;;;;;;5030303;28;20431;-72
2023/02/19 03:03:31;;;;;;;5.00;3.80;;;10.30;99.90;;;;;;5024832;28;21088;-72
2023/02/19 03:06:22;;;;;;;4.30;3.87;;;10.30;99.90;;;;;;5032904;28;20458;-71
2023/02/19 03:09:11;;;;;;;3.83;3.43;;;10.40;99.90;;;;;;5027710;28;20446;-71
2023/02/19 03:21:23;;;;;;;3.73;3.07;;;10.20;99.90;;;;;;5035001;28;20472;-71
2023/02/19 03:27:16;;;;;;;3.13;2.73;;;10.10;99.90;;;;;;5026066;28;20449;-72
2023/02/19 03:30:07;;;;;;;3.17;2.87;;;10.20;99.90;;;;;;5025208;28;20443;-72
2023/02/19 03:32:57;;;;;;;4.07;3.00;;;10.20;99.90;;;;;;5018339;28;20849;-71
2023/02/19 03:35:47;;;;;;;3.07;2.43;;;10.20;99.90;;;;;;5022595;28;20469;-71
2023/02/19 03:38:40;;;;;;;5.03;2.60;;;10.10;99.90;;;;;;5028809;28;20822;-72
2023/02/19 03:41:33;;;;;;;3.00;2.53;;;10.10;99.90;;;;;;5028685;28;20956;-72
2023/02/19 03:44:27;;;;;;;3.30;2.87;;;10.00;99.90;;;;;;5014031;28;20850;-72
2023/02/19 03:47:20;;;;;;;4.00;2.77;;;10.00;99.90;;;;;;5027894;28;20501;-72
2023/02/19 03:50:14;;;;;;;2.80;2.23;;;10.00;99.90;;;;;;5027579;28;20449;-71
2023/02/19 03:53:06;;;;;;;8.17;3.03;;;10.00;99.90;;;;;;5027417;28;20472;-72
2023/02/19 03:56:04;;;;;;;3.23;2.93;;;10.00;99.90;;;;;;5025637;28;20999;-71
2023/02/19 03:58:56;;;;;;;3.50;2.97;;;9.90;99.90;;;;;;5025234;28;20902;-71
2023/02/19 04:01:47;;;;;;;3.23;2.10;;;9.90;99.90;;;;;;5013430;28;20446;-71
2023/02/19 04:04:36;;;;;;;3.00;2.60;;;9.80;99.90;;;;;;5024393;28;20481;-71
2023/02/19 04:07:23;;;;;;;3.07;2.60;;;9.90;99.90;;;;;;5025397;28;21084;-71
2023/02/19 04:10:09;;;;;;;3.57;3.13;;;9.80;99.90;;;;;;5017960;28;20449;-72
2023/02/19 04:13:01;;;;;;;9.10;3.43;;;9.90;99.90;;;;;;5016553;28;20822;-71
2023/02/19 04:15:49;;;;;;;3.63;3.23;;;9.80;99.90;;;;;;5025562;28;20460;-71
2023/02/19 04:18:38;;;;;;;4.10;3.40;;;9.80;99.90;;;;;;5016175;28;20448;-72
2023/02/19 04:21:25;;;;;;;3.30;3.00;;;9.80;99.90;;;;;;5020577;28;20467;-71
2023/02/19 04:24:14;;;;;;;4.23;3.57;;;9.90;99.90;;;;;;5021554;28;20544;-72
2023/02/19 04:27:00;;;;;;;3.67;3.00;;;9.90;99.90;;;;;;5028058;28;20965;-72
2023/02/19 04:29:47;;;;;;;4.13;3.57;;;9.80;99.90;;;;;;5019242;28;20472;-72
2023/02/19 04:32:33;;;;;;;5.83;4.10;;;9.80;99.90;;;;;;5017754;28;20473;-71
2023/02/19 04:35:19;;;;;;;3.83;3.40;;;9.80;99.90;;;;;;5029266;28;20468;-71
2023/02/19 04:38:04;;;;;;;4.87;3.57;;;9.80;99.90;;;;;;5027414;28;20855;-72
2023/02/19 04:40:51;;;;;;;4.97;4.00;;;9.80;99.90;;;;;;5027714;28;20414;-72
2023/02/19 04:43:36;;;;;;;4.77;4.20;;;9.80;99.90;;;;;;5027030;28;20519;-72
2023/02/19 04:46:24;;;;;;;5.10;4.60;;;9.80;99.90;;;;;;5020506;28;20490;-72
2023/02/19 04:49:09;;;;;;;4.50;3.80;;;9.80;99.90;;;;;;5026317;28;20837;-72
2023/02/19 04:51:55;;;;;;;4.93;4.40;;;10.00;99.90;;;;;;5010807;28;20634;-71
2023/02/19 04:54:40;;;;;;;6.30;5.17;;;10.00;99.90;;;;;;5019499;28;20464;-71
2023/02/19 04:57:26;;;;;;;5.13;4.63;;;9.90;99.90;;;;;;5023268;28;20564;-72
2023/02/19 05:00:12;;;;;;;5.80;4.57;;;9.90;99.90;;;;;;5029012;28;20275;-71
2023/02/19 05:03:00;;;;;;;4.87;4.47;;;9.80;99.90;;;;;;5027336;28;20974;-71
2023/02/19 05:05:46;;;;;;;4.70;4.20;;;9.70;99.90;;;;;;5015440;28;20825;-71
2023/02/19 05:08:31;;;;;;;6.60;5.13;;;9.70;99.90;;;;;;5026122;28;20560;-72
2023/02/19 05:11:16;;;;;;;5.40;4.87;;;9.70;99.90;;;;;;5028558;28;21585;-71
2023/02/19 05:14:02;;;;;;;5.47;4.87;;;9.70;99.90;;;;;;5027895;28;20948;-71
2023/02/19 05:16:48;;;;;;;7.13;5.20;;;9.70;99.90;;;;;;5030026;28;20436;-72
2023/02/19 05:19:35;;;;;;;5.77;5.10;;;9.70;99.90;;;;;;5016936;28;20829;-72
2023/02/19 05:22:20;;;;;;;6.00;4.83;;;9.70;99.90;;;;;;5024233;28;20845;-72
2023/02/19 05:25:06;;;;;;;5.70;5.10;;;9.60;99.90;;;;;;5033848;28;20532;-72
2023/02/19 05:28:15;;;;;;;5.20;4.70;;;9.70;99.90;;;;;;5029248;28;20932;-71
2023/02/19 05:30:58;;;;;;;5.30;4.80;;;9.70;99.90;;;;;;5020248;28;21072;-71
2023/02/19 05:33:47;;;;;;;9.10;5.27;;;9.80;99.90;;;;;;5032927;28;20991;-71
2023/02/19 05:36:35;;;;;;;5.53;4.43;;;9.80;99.90;;;;;;5030092;28;20851;-71
2023/02/19 05:39:21;;;;;;;5.83;5.20;;;9.70;99.90;;;;;;5031054;28;20811;-72
2023/02/19 05:42:07;;;;;;;6.27;5.27;;;9.70;99.90;;;;;;5022655;28;20431;-72
2023/02/19 05:44:52;;;;;;;6.43;5.50;;;9.70;99.90;;;;;;5026138;28;20555;-72
2023/02/19 05:47:38;;;;;;;5.27;4.77;;;9.80;99.90;;;;;;5029687;28;20547;-72
2023/02/19 05:50:24;;;;;;;6.67;6.00;;;9.70;99.90;;;;;;5024950;28;20807;-71
2023/02/19 05:53:11;;;;;;;5.57;4.93;;;9.70;99.90;;;;;;5028619;28;20858;-72
2023/02/19 05:55:57;;;;;;;6.07;5.47;;;9.70;99.90;;;;;;5026070;28;20549;-72
2023/02/19 05:58:43;;;;;;;4.93;4.43;;;9.70;99.90;;;;;;5027251;28;20471;-71
2023/02/19 06:01:30;;;;;;;5.77;5.13;;;9.70;99.90;;;;;;5033663;28;20479;-71
2023/02/19 06:04:17;;;;;;;5.40;4.73;;;9.70;99.90;;;;;;5027310;28;20476;-72
2023/02/19 06:07:03;;;;;;;4.63;4.13;;;9.70;99.90;;;;;;5038124;28;20454;-72
2023/02/19 06:09:51;;;;;;;6.20;4.67;;;9.80;99.90;;;;;;5035066;28;20435;-72
2023/02/19 06:12:37;;;;;;;5.33;4.50;;;9.70;99.90;;;;;;5029492;28;20522;-71
2023/02/19 06:15:22;;;;;;;7.70;5.07;;;9.70;99.90;;;;;;5025247;28;20468;-71
2023/02/19 06:18:08;;;;;;;5.03;4.53;;;9.70;99.90;;;;;;5026503;28;22420;-71
2023/02/19 06:20:54;;;;;;;12.40;8.87;;;9.80;99.90;;;;;;5025070;28;20503;-72
2023/02/19 06:23:40;;;;;;;10.20;6.30;;;9.80;99.90;;;;;;5027815;28;20847;-71
2023/02/19 06:26:26;;;;;;;7.60;5.90;;;9.80;99.90;;;;;;5028482;28;20821;-72
2023/02/19 06:29:12;;;;;;;5.00;4.37;;;9.80;99.90;;;;;;5022644;28;20491;-71
2023/02/19 06:31:58;;;;;;;6.93;5.80;;;9.80;99.90;;;;;;5022049;28;21084;-72
2023/02/19 06:34:43;;;;;;;6.10;5.47;;;9.80;99.90;;;;;;5032656;28;20996;-71
2023/02/19 06:37:29;;;;;;;7.27;6.50;;;9.80;99.90;;;;;;5031258;28;20457;-71
2023/02/19 06:40:15;;;;;;;8.57;6.80;;;9.70;99.90;;;;;;5025559;28;20574;-71
2023/02/19 06:43:03;;;;;;;7.37;6.63;;;9.60;99.90;;;;;;5037047;28;20561;-72
2023/02/19 06:45:48;;;;;;;7.83;6.10;;;9.50;99.90;;;;;;5035566;28;20565;-72
2023/02/19 06:48:35;;;;;;;9.47;7.60;;;9.60;99.90;;;;;;5030907;28;20928;-71
2023/02/19 06:51:22;;;;;;;9.60;6.13;;;9.60;99.90;;;;;;5027192;28;20869;-72
2023/02/19 06:54:08;;;;;;;8.20;7.20;;;9.60;99.90;;;;;;5025303;28;20593;-71
2023/02/19 06:56:55;;;;;;;7.87;7.10;;;9.60;99.90;;;;;;5029391;28;20452;-72
2023/02/19 06:59:43;;;;;;;8.97;7.50;;;9.70;99.90;;;;;;5036053;28;20455;-72
2023/02/19 07:02:28;;;;;;;8.73;7.30;;;9.70;99.90;;;;;;5025711;28;20576;-71
2023/02/19 07:05:14;;;;;;;7.57;6.50;;;9.80;99.90;;;;;;5033368;28;20807;-71
2023/02/19 07:08:00;;;;;;;7.97;6.63;;;9.70;99.90;;;;;;5035306;28;20444;-72
2023/02/19 07:10:45;;;;;;;7.60;6.90;;;9.80;99.90;;;;;;5027696;28;21628;-76
2023/02/19 07:13:31;;;;;;;11.63;6.60;;;9.80;99.90;;;;;;5027380;28;20623;-71
2023/02/19 07:16:18;;;;;;;8.07;6.53;;;9.90;99.90;;;;;;5027093;28;21006;-72
2023/02/19 07:19:03;;;;;;;7.70;6.50;;;9.90;99.90;;;;;;5031460;28;20444;-71
2023/02/19 07:21:49;;;;;;;7.53;6.40;;;9.90;99.90;;;;;;5028517;28;20453;-71
2023/02/19 07:24:35;;;;;;;11.20;8.03;;;9.90;99.90;;;;;;5025185;28;20468;-72
2023/02/19 07:27:20;;;;;;;7.90;6.10;;;9.90;99.90;;;;;;5016591;28;20850;-72
2023/02/19 07:30:07;;;;;;;9.07;7.00;;;9.90;99.90;;;;;;5026664;28;20589;-72
2023/02/19 07:32:54;;;;;;;11.90;8.27;;;10.00;99.90;;;;;;5022651;28;20476;-72
2023/02/19 07:35:45;;;;;;;7.30;5.67;;;9.90;99.90;;;;;;5022419;28;20511;-72
2023/02/19 07:38:31;;;;;;;6.20;4.67;;;9.90;99.90;;;;;;5027269;28;20456;-71
2023/02/19 07:41:17;;;;;;;18.73;9.73;;;9.80;99.90;;;;;;5023733;28;20584;-72
2023/02/19 07:44:02;;;;;;;11.93;7.20;;;9.80;99.90;;;;;;5021066;28;20444;-71
2023/02/19 07:46:48;;;;;;;6.90;5.10;;;9.80;99.90;;;;;;5027779;28;20494;-72
2023/02/19 07:49:35;;;;;;;6.87;5.60;;;9.90;99.90;;;;;;5017580;28;20544;-71
2023/02/19 07:52:21;;;;;;;5.70;4.30;;;9.90;99.90;;;;;;5025880;28;20456;-72
2023/02/19 07:55:07;;;;;;;6.43;4.97;;;10.00;99.90;;;;;;5028597;28;20531;-72
2023/02/19 07:57:53;;;;;;;7.73;6.13;;;10.00;99.90;;;;;;5033893;28;20937;-72
2023/02/19 08:00:39;;;;;;;6.97;5.37;;;10.00;99.90;;;;;;5029669;28;20599;-72
2023/02/19 08:03:24;;;;;;;12.90;7.27;;;10.00;99.90;;;;;;5032552;28;20439;-72
2023/02/19 08:06:12;;;;;;;10.60;6.93;;;10.00;99.90;;;;;;5021864;28;20982;-71
2023/02/19 08:08:57;;;;;;;7.23;4.73;;;10.10;99.90;;;;;;5028249;28;20476;-72
2023/02/19 08:14:46;;;;;;;7.03;4.63;;;10.30;99.90;;;;;;5034146;28;20507;-71
2023/02/19 08:17:31;;;;;;;6.80;5.40;;;10.20;99.90;;;;;;5030044;28;20451;-72
2023/02/19 08:20:17;;;;;;;6.33;4.80;;;10.30;99.90;;;;;;5026652;28;20495;-72
2023/02/19 08:23:05;;;;;;;6.47;5.07;;;10.30;99.90;;;;;;5021606;28;20454;-71
2023/02/19 08:25:52;;;;;;;13.37;6.37;;;10.40;99.90;;;;;;5014991;28;20519;-72
2023/02/19 08:28:38;;;;;;;5.97;4.30;;;10.40;99.90;;;;;;5020731;28;20560;-72
2023/02/19 08:31:23;;;;;;;5.80;5.20;;;10.40;99.90;;;;;;5018265;28;20484;-72
2023/02/19 08:34:09;;;;;;;7.80;4.87;;;10.50;99.90;;;;;;5022066;28;20525;-71
2023/02/19 08:36:55;;;;;;;6.70;5.07;;;10.50;99.90;;;;;;5021142;28;20972;-71
2023/02/19 08:39:42;;;;;;;6.60;4.70;;;10.50;99.90;;;;;;5021912;28;20442;-72
2023/02/19 08:42:28;;;;;;;9.73;6.37;;;10.60;99.90;;;;;;5025481;28;20480;-72
2023/02/19 08:45:14;;;;;;;7.73;5.47;;;10.60;99.90;;;;;;5016952;28;20474;-72
2023/02/19 08:48:00;;;;;;;6.47;4.77;;;10.70;99.90;;;;;;5026284;28;21162;-71
2023/02/19 08:50:45;;;;;;;5.27;3.43;;;10.70;99.90;;;;;;5028440;28;20483;-72
2023/02/19 08:53:32;;;;;;;7.87;4.60;;;10.80;99.90;;;;;;5025114;28;20476;-72
2023/02/19 08:56:19;;;;;;;5.70;3.83;;;10.80;99.90;;;;;;5018472;28;20457;-71
2023/02/19 08:59:06;;;;;;;8.07;4.10;;;10.80;99.90;;;;;;5016304;28;20458;-72
2023/02/19 09:01:52;;;;;;;6.27;4.30;;;10.70;99.90;;;;;;5024146;28;20458;-72
2023/02/19 09:04:38;;;;;;;8.10;3.97;;;10.80;99.90;;;;;;5021241;28;20470;-72
2023/02/19 09:07:23;;;;;;;10.17;3.93;;;10.80;99.90;;;;;;5027030;28;20442;-71
2023/02/19 09:10:10;;;;;;;6.37;4.23;;;10.90;99.90;;;;;;5030820;28;20448;-72
2023/02/19 09:12:57;;;;;;;8.10;4.30;;;10.80;99.90;;;;;;5026049;28;20492;-72
2023/02/19 09:15:43;;;;;;;10.37;4.00;;;10.80;99.90;;;;;;5024218;28;20459;-72
2023/02/19 09:18:29;;;;;;;3.67;2.80;;;10.80;99.90;;;;;;5027022;28;20551;-72
2023/02/19 09:21:14;;;;;;;8.43;3.13;;;10.80;99.90;;;;;;5038367;28;20523;-72
2023/02/19 09:24:00;;;;;;;4.43;2.80;;;10.80;99.90;;;;;;5026531;28;20447;-71
2023/02/19 09:26:48;;;;;;;3.90;2.80;;;10.80;99.90;;;;;;5028985;28;20525;-72
2023/02/19 09:29:35;;;;;;;5.07;3.30;;;10.80;99.90;;;;;;5031532;28;20583;-72
2023/02/19 09:32:21;;;;;;;6.83;2.37;;;10.80;99.90;;;;;;5023738;28;20469;-71
2023/02/19 09:35:07;;;;;;;9.20;6.03;;;10.80;99.90;;;;;;5027419;28;20477;-71
2023/02/19 09:37:53;;;;;;;7.83;4.97;;;10.80;99.90;;;;;;5026241;28;20460;-72
2023/02/19 09:40:39;;;;;;;7.53;3.70;;;10.80;99.90;;;;;;5028236;28;20448;-72
2023/02/19 09:43:28;;;;;;;11.73;3.57;;;10.80;99.90;;;;;;5030718;28;20583;-72
2023/02/19 09:46:28;;;;;;;9.50;3.70;;;10.80;99.90;;;;;;5027958;28;20575;-72
2023/02/19 09:49:18;;;;;;;7.10;3.10;;;10.80;99.90;;;;;;5025396;28;20472;-72
2023/02/19 09:52:09;;;;;;;5.60;3.10;;;10.90;99.90;;;;;;5022311;28;20419;-72
2023/02/19 09:54:58;;;;;;;9.10;3.23;;;11.00;99.90;;;;;;5022881;28;20480;-72
2023/02/19 09:57:45;;;;;;;7.60;3.10;;;11.10;99.90;;;;;;5027836;28;20453;-72
2023/02/19 10:00:34;;;;;;;9.53;3.20;;;11.30;99.90;;;;;;5033776;28;20448;-72
2023/02/19 10:03:29;;;;;;;6.80;3.30;;;11.30;99.90;;;;;;5025699;28;20445;-72
2023/02/19 10:06:20;;;;;;;9.27;3.30;;;11.40;99.90;;;;;;5022135;28;20875;-72
2023/02/19 10:09:18;;;;;;;8.40;2.70;;;11.40;99.90;;;;;;5033418;28;21055;-72
2023/02/19 10:12:14;;;;;;;9.10;3.60;;;11.30;99.90;;;;;;5027522;28;20530;-72
2023/02/19 10:15:05;;;;;;;6.30;3.30;;;11.30;99.90;;;;;;5028216;28;20845;-72
2023/02/19 10:17:51;;;;;;;3.77;2.77;;;11.30;99.90;;;;;;5022445;28;20964;-71
2023/02/19 10:20:39;;;;;;;4.83;2.87;;;11.30;99.90;;;;;;5027085;28;20448;-72
2023/02/19 10:23:25;;;;;;;4.90;2.77;;;11.40;99.90;;;;;;5030295;28;20542;-71
2023/02/19 10:26:11;;;;;;;7.53;3.17;;;11.60;99.90;;;;;;5020886;28;20448;-71
2023/02/19 10:28:57;;;;;;;7.83;3.40;;;11.60;99.90;;;;;;5030602;28;20453;-73
2023/02/19 10:31:42;;;;;;;6.70;3.40;;;11.60;99.90;;;;;;5027564;28;20582;-72
2023/02/19 10:34:28;;;;;;;4.87;3.07;;;11.60;99.90;;;;;;5024971;28;20591;-70
2023/02/19 10:37:18;;;;;;;5.80;3.60;;;11.60;99.90;;;;;;5023614;28;21939;-71
2023/02/19 10:40:03;;;;;;;5.67;2.50;;;11.60;99.90;;;;;;5027129;28;20442;-71
2023/02/19 10:42:52;;;;;;;10.73;3.37;;;11.70;99.90;;;;;;5020843;28;20425;-72
2023/02/19 10:45:46;;;;;;;7.00;3.20;;;11.80;99.90;;;;;;5028750;28;20455;-71
2023/02/19 10:48:34;;;;;;;6.10;2.73;;;12.00;99.90;;;;;;5021336;28;20921;-72
2023/02/19 10:51:21;;;;;;;5.93;2.80;;;12.10;99.90;;;;;;5034171;28;20522;-72
2023/02/19 10:54:17;;;;;;;5.03;2.53;;;12.20;99.90;;;;;;5034742;28;21024;-72
2023/02/19 10:57:28;;;;;;;3.80;2.00;;;12.40;99.90;;;;;;5029657;28;20464;-71
2023/02/19 11:00:23;;;;;;;4.30;2.20;;;12.30;99.90;;;;;;5028858;28;20420;-72
2023/02/19 11:03:20;;;;;;;4.80;2.13;;;12.30;99.90;;;;;;5022440;28;20423;-71
2023/02/19 11:06:09;;;;;;;4.83;2.37;;;12.30;99.90;;;;;;5026307;28;20484;-72
2023/02/19 11:08:58;;;;;;;7.63;2.90;;;12.20;99.90;;;;;;5030623;28;20498;-72
2023/02/19 11:11:50;;;;;;;3.20;2.40;;;12.10;99.90;;;;;;5026687;28;20644;-72
2023/02/19 11:14:36;;;;;;;11.17;3.17;;;12.10;99.90;;;;;;5026457;28;20484;-72
2023/02/19 11:17:24;;;;;;;4.60;2.40;;;12.10;99.90;;;;;;5024899;28;20969;-71
2023/02/19 11:20:17;;;;;;;6.10;2.37;;;12.00;99.90;;;;;;5027124;28;20417;-72
2023/02/19 11:23:13;;;;;;;4.40;2.23;;;12.00;99.90;;;;;;5030343;28;20498;-72
2023/02/19 11:26:01;;;;;;;5.43;2.33;;;12.10;99.90;;;;;;5031436;28;20464;-71
2023/02/19 11:28:56;;;;;;;4.60;2.60;;;12.00;99.90;;;;;;5033511;28;20952;-72
2023/02/19 11:31:41;;;;;;;6.03;2.57;;;12.10;99.90;;;;;;5032948;28;20441;-71
2023/02/19 11:34:29;;;;;;;3.73;2.23;;;12.20;99.90;;;;;;5027231;28;20942;-72
2023/02/19 11:37:16;;;;;;;5.73;2.63;;;12.20;99.90;;;;;;5031476;28;20445;-72
2023/02/19 11:40:02;;;;;;;4.30;2.40;;;12.20;99.90;;;;;;5033896;28;20465;-72
2023/02/19 11:42:57;;;;;;;6.00;2.40;;;12.20;99.90;;;;;;5028676;28;20456;-71
2023/02/19 11:45:51;;;;;;;4.80;1.93;;;12.20;99.90;;;;;;5023530;28;21365;-72
2023/02/19 11:48:55;;;;;;;6.70;2.40;;;12.20;99.90;;;;;;5028176;28;20629;-72
2023/02/19 11:52:01;;;;;;;6.40;2.50;;;12.20;99.90;;;;;;5031891;28;20424;-71
2023/02/19 11:54:51;;;;;;;6.47;2.03;;;12.20;99.90;;;;;;5027864;28;20554;-72
2023/02/19 11:57:43;;;;;;;3.60;1.80;;;12.20;99.90;;;;;;5023849;28;20535;-72
2023/02/19 12:00:30;;;;;;;8.07;1.87;;;12.30;99.90;;;;;;5030056;28;20511;-72
2023/02/19 12:03:38;;;;;;;6.23;2.30;;;12.30;99.90;;;;;;5029635;28;20794;-71
2023/02/19 12:06:31;;;;;;;4.07;2.20;;;12.20;99.90;;;;;;5024783;28;20538;-72
2023/02/19 12:09:30;;;;;;;3.73;1.77;;;12.20;99.90;;;;;;5030984;28;20440;-72
2023/02/19 12:12:50;;;;;;;2.90;1.67;;;12.30;99.90;;;;;;5029202;28;20431;-72
2023/02/19 12:15:46;;;;;;;8.20;3.10;;;12.20;99.90;;;;;;5022499;28;20599;-71
2023/02/19 12:19:02;;;;;;;4.80;2.20;;;12.20;99.90;;;;;;5024632;28;20417;-72
2023/02/19 12:22:01;;;;;;;7.23;2.40;;;12.00;99.90;;;;;;5026621;28;20782;-72
2023/02/19 12:25:23;;;;;;;7.23;2.23;;;11.80;99.90;;;;;;5018520;28;20532;-71
2023/02/19 12:28:22;;;;;;;4.90;2.70;;;11.70;99.90;;;;;;5023264;28;20536;-71
2023/02/19 12:31:45;;;;;;;5.23;2.33;;;11.60;99.90;;;;;;5029671;28;20449;-72
2023/02/19 12:34:46;;;;;;;5.50;2.73;;;11.60;99.90;;;;;;4961288;28;20608;-72
2023/02/19 12:37:41;;;;;;;5.77;2.30;;;11.50;99.90;;;;;;5026625;28;20443;-72
2023/02/19 12:40:38;;;;;;;6.27;2.30;;;11.50;99.90;;;;;;5018720;28;20562;-72
2023/02/19 12:43:24;;;;;;;2.90;1.93;;;11.50;99.90;;;;;;5022922;28;20810;-73
2023/02/19 12:46:18;;;;;;;4.17;1.80;;;11.60;99.90;;;;;;5050434;22;20492;-73
2023/02/19 12:49:10;;;;;;;5.50;2.03;;;11.70;99.90;;;;;;5019004;28;20880;-72
2023/02/19 12:52:00;;;;;;;4.43;1.37;;;12.00;99.90;;;;;;5024925;28;20443;-73
2023/02/19 12:54:50;;;;;;;6.70;1.77;;;12.10;99.90;;;;;;5025981;28;20476;-73
2023/02/19 12:57:38;;;;;;;10.23;2.20;;;12.30;99.90;;;;;;5025637;28;20419;-73
2023/02/19 13:00:31;;;;;;;4.87;1.90;;;12.50;99.90;;;;;;5021341;28;20451;-72
2023/02/19 13:03:22;;;;;;;3.87;1.97;;;12.60;99.90;;;;;;5025655;28;20930;-72
2023/02/19 13:06:15;;;;;;;5.60;2.03;;;12.70;99.90;;;;;;5024910;28;21107;-72
2023/02/19 13:09:07;;;;;;;5.80;2.03;;;12.60;99.90;;;;;;5027116;28;20794;-74
2023/02/19 13:11:56;;;;;;;6.03;2.07;;;12.70;99.90;;;;;;5027056;28;20456;-74
2023/02/19 13:14:45;;;;;;;5.93;1.87;;;12.90;99.90;;;;;;5023544;28;20535;-74
2023/02/19 13:17:38;;;;;;;3.90;1.57;;;12.90;99.90;;;;;;5024194;28;20443;-74
2023/02/19 13:20:30;;;;;;;5.13;1.70;;;12.90;99.90;;;;;;5024481;28;20960;-74
2023/02/19 13:26:42;;;;;;;4.60;1.87;;;12.70;99.90;;;;;;5025364;28;20503;-73
2023/02/19 13:29:46;;;;;;;11.23;2.20;;;12.60;99.90;;;;;;5029675;28;20586;-73
2023/02/19 13:32:53;;;;;;;7.43;2.60;;;12.60;99.90;;;;;;5026954;28;20443;-73
2023/02/19 13:36:17;;;;;;;5.37;2.00;;;12.60;99.90;;;;;;5031046;28;20476;-73
2023/02/19 13:39:05;;;;;;;5.33;2.27;;;12.60;99.90;;;;;;5024340;28;20510;-74
2023/02/19 13:41:55;;;;;;;5.40;2.07;;;12.60;99.90;;;;;;5031371;28;20396;-73
2023/02/19 13:44:47;;;;;;;6.50;2.20;;;12.50;99.90;;;;;;5032356;28;21005;-74
2023/02/19 13:47:48;;;;;;;5.77;2.00;;;12.50;99.90;;;;;;5031308;28;20588;-74
2023/02/19 13:50:34;;;;;;;5.47;1.60;;;12.50;99.90;;;;;;5026018;28;20448;-73
2023/02/19 13:53:57;;;;;;;7.50;2.27;;;12.40;99.90;;;;;;5029570;28;20453;-73
2023/02/19 13:56:43;;;;;;;10.23;1.87;;;12.30;99.90;;;;;;5028174;28;20448;-74
2023/02/19 13:59:39;;;;;;;6.67;2.63;;;12.20;99.90;;;;;;5023854;28;20782;-72
2023/02/19 14:02:30;;;;;;;6.00;1.93;;;12.10;99.90;;;;;;5030240;28;20460;-74
2023/02/19 14:06:04;;;;;;;7.67;2.13;;;12.00;99.90;;;;;;5031741;28;20448;-75
2023/02/19 14:08:54;;;;;;;4.70;2.50;;;12.10;99.90;;;;;;5005841;28;20460;-73
2023/02/19 14:12:18;;;;;;;5.73;2.40;;;12.10;99.90;;;;;;5025305;28;20487;-73
2023/02/19 14:15:43;;;;;;;3.00;1.70;;;12.10;99.90;;;;;;4967770;28;20531;-74
2023/02/19 14:18:43;;;;;;;3.70;1.70;;;12.20;99.90;;;;;;5029347;28;22733;-72
2023/02/19 14:21:36;;;;;;;6.63;2.20;;;12.20;99.90;;;;;;5033193;28;20806;-71
2023/02/19 14:24:22;;;;;;;6.07;2.10;;;12.20;99.90;;;;;;5023970;28;20427;-73
2023/02/19 14:27:08;;;;;;;5.50;2.63;;;12.20;99.90;;;;;;5030848;28;20429;-73
2023/02/19 14:29:54;;;;;;;6.63;2.33;;;12.20;99.90;;;;;;5032017;28;20443;-73
2023/02/19 14:32:41;;;;;;;3.93;2.37;;;12.20;99.90;;;;;;5024393;28;20462;-72
2023/02/19 14:35:36;;;;;;;5.07;1.93;;;12.20;99.90;;;;;;5026860;28;20499;-71
2023/02/19 14:38:25;;;;;;;3.83;1.87;;;12.20;99.90;;;;;;5018069;28;20608;-71
2023/02/19 14:41:12;;;;;;;7.47;2.17;;;12.20;99.90;;;;;;5024847;28;20408;-72
2023/02/19 14:44:00;;;;;;;5.33;1.70;;;12.10;99.90;;;;;;5028925;28;20481;-73
2023/02/19 14:46:54;;;;;;;3.67;1.67;;;12.20;99.90;;;;;;5028814;28;20475;-73
2023/02/19 14:49:45;;;;;;;3.90;1.73;;;12.20;99.90;;;;;;5034409;28;20456;-72
2023/02/19 14:52:38;;;;;;;6.97;2.40;;;12.10;99.90;;;;;;5017976;28;20456;-72
2023/02/19 14:55:27;;;;;;;5.53;1.50;;;12.10;99.90;;;;;;5027606;28;20691;-74
2023/02/19 14:58:17;;;;;;;4.13;2.03;;;12.00;99.90;;;;;;5017870;28;20493;-73
2023/02/19 15:01:04;;;;;;;4.57;1.90;;;12.00;99.90;;;;;;5029580;28;20535;-73
2023/02/19 15:03:54;;;;;;;4.50;2.00;;;11.90;99.90;;;;;;5023301;28;20460;-73
2023/02/19 15:06:41;;;;;;;14.60;8.17;;;12.00;99.90;;;;;;5024942;28;20992;-74
2023/02/19 15:09:32;;;;;;;7.63;2.30;;;12.00;99.90;;;;;;5014333;28;20512;-74